Time;durP1;ratioP1;P1;durP2;ratioP2;P2;SDS_P1;SDS_P2;PMS_P1;PMS_P2;Temp;Humidity;BMP_temperature;BMP_pressure;BME280_temperature;BME280_humidity;BME280_pressure;Samples;Min_cycle;Max_cycle;Signal;HPM_P1;HPM_P2
2022/10/02 00:01:02;;;;;;;3.60;3.30;;;11.30;99.90;10.70;99253;;;;556438;254;24125;-81
2022/10/02 00:03:31;;;;;;;4.57;3.63;;;11.30;99.90;10.70;99253;;;;556071;253;24122;-82
2022/10/02 00:05:59;;;;;;;4.07;3.77;;;11.30;99.90;10.70;99261;;;;556457;254;24149;-82
2022/10/02 00:08:27;;;;;;;3.93;3.53;;;11.30;99.90;10.70;99255;;;;555990;253;24236;-81
2022/10/02 00:10:55;;;;;;;3.17;2.97;;;11.30;99.90;10.70;99264;;;;561103;251;24133;-81
2022/10/02 00:13:26;;;;;;;4.53;3.40;;;11.30;99.90;10.60;99267;;;;562428;251;24137;-81
2022/10/02 00:15:55;;;;;;;4.40;2.93;;;11.20;99.90;10.60;99265;;;;556648;253;24164;-82
2022/10/02 00:18:28;;;;;;;3.47;3.17;;;11.20;99.90;10.50;99259;;;;555602;254;24124;-81
2022/10/02 00:21:32;;;;;;;5.47;3.73;;;11.10;99.90;10.50;99268;;;;557242;254;24143;-81
2022/10/02 00:24:00;;;;;;;3.40;3.10;;;11.10;99.90;10.50;99262;;;;554416;255;24185;-81
2022/10/02 00:27:01;;;;;;;3.40;3.03;;;11.10;99.90;10.50;99258;;;;555873;257;24239;-82
2022/10/02 00:29:28;;;;;;;3.10;2.90;;;11.10;99.90;10.40;99258;;;;567589;249;24092;-82
2022/10/02 00:32:09;;;;;;;7.23;3.10;;;11.10;99.90;10.40;99263;;;;571988;250;24121;-82
2022/10/02 00:35:21;;;;;;;3.67;3.27;;;11.00;99.90;10.40;99261;;;;564496;251;24165;-82
2022/10/02 00:37:58;;;;;;;9.30;3.23;;;11.00;99.90;10.40;99260;;;;564412;251;24105;-81
2022/10/02 00:40:48;;;;;;;3.27;3.00;;;11.00;99.90;10.40;99261;;;;563806;251;24183;-82
2022/10/02 00:43:40;;;;;;;4.43;3.17;;;11.00;99.90;10.40;99259;;;;561018;256;24194;-79
2022/10/02 00:46:29;;;;;;;5.53;2.80;;;11.00;99.90;10.40;99257;;;;557435;253;24193;-82
2022/10/02 00:49:09;;;;;;;3.90;3.07;;;11.00;99.90;10.40;99260;;;;564868;249;24124;-80
2022/10/02 00:51:54;;;;;;;3.70;3.40;;;11.00;99.90;10.40;99266;;;;557585;254;24124;-81
2022/10/02 00:54:46;;;;;;;2.20;2.10;;;11.00;99.90;10.40;99271;;;;557647;254;24112;-81
2022/10/02 00:57:41;;;;;;;3.30;3.00;;;11.00;99.90;10.40;99269;;;;557729;254;24137;-81
2022/10/02 01:00:09;;;;;;;2.80;2.60;;;11.10;99.90;10.50;99279;;;;557666;254;24164;-80
2022/10/02 01:02:46;;;;;;;3.87;2.57;;;11.10;99.90;10.60;99273;;;;557635;254;24131;-82
2022/10/02 01:05:15;;;;;;;2.97;2.43;;;11.20;99.90;10.60;99282;;;;564990;253;24152;-82
2022/10/02 01:07:46;;;;;;;5.77;2.87;;;11.20;99.90;10.60;99271;;;;566344;252;24151;-80
2022/10/02 01:10:12;;;;;;;2.97;2.30;;;11.30;99.90;10.60;99280;;;;556910;254;24133;-81
2022/10/02 01:12:40;;;;;;;2.60;2.40;;;11.30;99.90;10.50;99276;;;;557235;254;24121;-82
2022/10/02 01:15:17;;;;;;;5.37;2.47;;;11.20;99.90;10.50;99273;;;;568596;251;24120;-81
2022/10/02 01:17:45;;;;;;;2.77;2.57;;;11.10;99.90;10.40;99276;;;;560655;256;24172;-81
2022/10/02 01:20:16;;;;;;;3.60;2.33;;;11.00;99.90;10.30;99285;;;;560055;253;24152;-81
2022/10/02 01:22:53;;;;;;;2.13;2.03;;;10.90;99.90;10.20;99281;;;;551666;256;24215;-81
2022/10/02 01:25:21;;;;;;;2.33;2.13;;;10.90;99.90;10.10;99276;;;;560957;252;24119;-82
2022/10/02 01:27:50;;;;;;;2.77;2.23;;;10.80;99.90;10.10;99280;;;;560983;252;24085;-81
2022/10/02 01:30:18;;;;;;;2.73;2.53;;;10.80;99.90;10.10;99273;;;;560652;252;24118;-80
2022/10/02 01:32:48;;;;;;;2.93;2.73;;;10.80;99.90;10.20;99272;;;;560512;252;24144;-81
2022/10/02 01:35:20;;;;;;;2.70;2.53;;;10.80;99.90;10.20;99272;;;;560416;252;24129;-79
2022/10/02 01:37:48;;;;;;;3.33;2.63;;;10.80;99.90;10.10;99281;;;;563506;252;24147;-80
2022/10/02 01:40:31;;;;;;;2.47;2.23;;;10.80;99.90;10.10;99280;;;;560202;252;24134;-81
2022/10/02 01:43:21;;;;;;;3.40;2.50;;;10.80;99.90;10.20;99284;;;;570295;249;24177;-80
2022/10/02 01:46:07;;;;;;;4.37;2.80;;;10.80;99.90;10.20;99269;;;;561556;252;24122;-80
2022/10/02 01:48:49;;;;;;;3.90;2.40;;;10.80;99.90;10.20;99280;;;;569336;249;24162;-81
2022/10/02 01:51:29;;;;;;;4.83;2.17;;;10.90;99.90;10.30;99286;;;;561613;252;24114;-82
2022/10/02 01:54:09;;;;;;;4.37;2.40;;;11.00;99.90;10.30;99278;;;;561604;252;24109;-81
2022/10/02 01:56:46;;;;;;;2.30;2.20;;;11.00;99.90;10.40;99286;;;;561671;252;24114;-83
2022/10/02 01:59:22;;;;;;;4.73;2.20;;;11.00;99.90;10.40;99291;;;;561856;252;24143;-81
2022/10/02 02:02:08;;;;;;;3.03;2.13;;;11.10;99.90;10.40;99293;;;;561155;252;24145;-82
2022/10/02 02:05:00;;;;;;;3.33;2.60;;;11.10;99.90;10.50;99289;;;;561549;252;24217;-81
2022/10/02 02:07:45;;;;;;;1.80;1.70;;;11.10;99.90;10.50;99290;;;;559774;252;24124;-80
2022/10/02 02:10:25;;;;;;;2.33;2.03;;;11.20;99.90;10.50;99298;;;;561051;252;24210;-83
2022/10/02 02:13:02;;;;;;;2.17;2.07;;;11.10;99.90;10.40;99299;;;;569021;252;24137;-82
2022/10/02 02:15:33;;;;;;;3.03;1.90;;;11.00;99.90;10.30;99305;;;;568854;251;24131;-82
2022/10/02 02:18:11;;;;;;;2.37;2.17;;;11.00;99.90;10.30;99307;;;;561204;252;24131;-82
2022/10/02 02:20:42;;;;;;;2.80;1.83;;;11.00;99.90;10.30;99308;;;;560934;252;24149;-81
2022/10/02 02:23:12;;;;;;;1.70;1.60;;;11.00;99.90;10.30;99306;;;;561011;252;24138;-81
2022/10/02 02:25:40;;;;;;;1.80;1.70;;;11.00;99.90;10.30;99305;;;;561327;252;24137;-82
2022/10/02 02:28:08;;;;;;;2.93;1.93;;;11.00;99.90;10.40;99310;;;;561139;252;24134;-80
2022/10/02 02:30:36;;;;;;;2.77;1.80;;;11.00;99.90;10.40;99313;;;;561474;252;24145;-80
2022/10/02 02:33:31;;;;;;;4.93;1.80;;;11.10;99.90;10.50;99307;;;;561381;252;24138;-80
2022/10/02 02:35:59;;;;;;;1.80;1.70;;;11.10;99.90;10.50;99298;;;;558490;252;24175;-81
2022/10/02 02:38:29;;;;;;;3.57;1.40;;;11.10;99.90;10.50;99308;;;;560338;252;24127;-80
2022/10/02 02:40:57;;;;;;;6.27;2.33;;;11.20;99.90;10.50;99308;;;;560360;252;24124;-80
2022/10/02 02:43:28;;;;;;;2.37;2.17;;;11.20;99.90;10.50;99310;;;;560336;252;24142;-81
2022/10/02 02:45:59;;;;;;;3.67;2.03;;;11.10;99.90;10.40;99317;;;;559812;252;24291;-81
2022/10/02 02:48:27;;;;;;;3.77;2.03;;;11.10;99.90;10.40;99326;;;;560501;251;24130;-80
2022/10/02 02:50:56;;;;;;;3.63;2.10;;;11.00;99.90;10.30;99317;;;;560096;252;24208;-81
2022/10/02 02:53:24;;;;;;;2.97;2.07;;;10.90;99.90;10.20;99319;;;;561413;251;24117;-82
2022/10/02 02:55:58;;;;;;;2.77;1.80;;;10.90;99.90;10.20;99321;;;;561564;252;24146;-81
2022/10/02 02:58:38;;;;;;;3.00;2.30;;;10.80;99.90;10.10;99316;;;;561169;252;25217;-80
2022/10/02 03:01:06;;;;;;;3.70;1.90;;;10.80;99.90;10.10;99321;;;;558896;252;24150;-80
2022/10/02 03:03:37;;;;;;;3.67;1.90;;;10.80;99.90;10.10;99325;;;;560983;252;24194;-82
2022/10/02 03:06:05;;;;;;;4.23;2.00;;;10.80;99.90;10.10;99317;;;;560816;252;24119;-81
2022/10/02 03:08:32;;;;;;;5.10;1.73;;;10.80;99.90;10.20;99329;;;;563581;250;24136;-80
2022/10/02 03:11:22;;;;;;;4.47;1.87;;;10.80;99.90;10.20;99329;;;;560104;252;24125;-82
2022/10/02 03:13:55;;;;;;;4.10;1.70;;;10.90;99.90;10.30;99323;;;;563452;251;24216;-80
2022/10/02 03:16:38;;;;;;;6.17;2.00;;;10.90;99.90;10.40;99327;;;;566059;253;24165;-83
2022/10/02 03:19:45;;;;;;;2.00;1.90;;;11.00;99.90;10.40;99318;;;;557415;254;24141;-81
2022/10/02 03:22:40;;;;;;;5.27;1.97;;;11.00;99.90;10.40;99318;;;;566776;254;24122;-81
2022/10/02 03:25:25;;;;;;;4.33;1.83;;;11.10;99.90;10.50;99323;;;;557586;254;24124;-81
2022/10/02 03:27:58;;;;;;;3.50;2.27;;;11.10;99.90;10.50;99322;;;;569647;251;24107;-81
2022/10/02 03:30:23;;;;;;;4.80;2.00;;;11.20;99.90;10.50;99327;;;;563049;251;24128;-82
2022/10/02 03:32:52;;;;;;;4.77;1.80;;;11.10;99.90;10.50;99326;;;;557659;254;24152;-81
2022/10/02 03:35:19;;;;;;;2.87;1.80;;;11.10;99.90;10.50;99326;;;;557604;254;24181;-81
2022/10/02 03:37:47;;;;;;;2.87;1.53;;;11.20;99.90;10.50;99331;;;;556939;251;24184;-81
2022/10/02 03:40:18;;;;;;;1.73;1.60;;;11.20;99.90;10.50;99333;;;;557199;254;24128;-81
2022/10/02 03:42:43;;;;;;;3.40;2.17;;;11.10;99.90;10.50;99333;;;;560407;252;35537;-81
2022/10/02 03:45:11;;;;;;;4.27;2.13;;;11.10;99.90;10.50;99333;;;;556215;254;24165;-81
2022/10/02 03:47:39;;;;;;;1.80;1.40;;;11.20;99.90;10.50;99343;;;;556614;254;24163;-83
2022/10/02 03:50:07;;;;;;;3.63;1.50;;;11.10;99.90;10.50;99340;;;;556727;254;24269;-83
2022/10/02 03:52:35;;;;;;;3.53;1.33;;;11.10;99.90;10.50;99339;;;;552093;254;24116;-82
2022/10/02 03:55:05;;;;;;;2.10;1.10;;;11.10;99.90;10.40;99345;;;;566648;250;24109;-83
2022/10/02 03:57:30;;;;;;;0.90;0.90;;;11.10;99.90;10.40;99336;;;;557005;252;24208;-82
2022/10/02 04:00:08;;;;;;;3.30;1.10;;;11.00;99.90;10.30;99343;;;;557333;253;24129;-83
2022/10/02 04:02:53;;;;;;;1.47;1.00;;;11.00;99.90;10.30;99343;;;;563338;251;24113;-82
2022/10/02 04:05:42;;;;;;;1.07;1.07;;;10.90;99.90;10.20;99345;;;;562121;255;24143;-82
2022/10/02 04:08:12;;;;;;;0.80;0.80;;;10.90;99.90;10.20;99345;;;;573612;246;24142;-83
2022/10/02 04:11:02;;;;;;;2.63;0.70;;;10.80;99.90;10.10;99353;;;;564571;251;24124;-81
2022/10/02 04:13:39;;;;;;;2.73;0.70;;;10.80;99.90;10.10;99345;;;;553487;256;24157;-82
2022/10/02 04:16:12;;;;;;;1.40;0.60;;;10.70;99.90;10.00;99348;;;;553550;255;24352;-83
2022/10/02 04:18:46;;;;;;;0.97;0.70;;;10.60;99.90;10.00;99346;;;;557586;254;24186;-83
2022/10/02 04:21:33;;;;;;;0.83;0.53;;;10.60;99.90;9.90;99342;;;;552027;254;24152;-84
2022/10/02 04:24:11;;;;;;;2.83;0.60;;;10.50;99.90;9.80;99335;;;;557500;254;24121;-83
2022/10/02 04:26:39;;;;;;;1.13;0.80;;;10.50;99.90;9.80;99340;;;;574002;247;24110;-84
2022/10/02 04:29:19;;;;;;;0.47;0.43;;;10.40;99.90;9.70;99343;;;;563287;251;24154;-85
2022/10/02 04:31:47;;;;;;;0.40;0.40;;;10.40;99.90;9.70;99337;;;;553618;255;24181;-84
2022/10/02 04:34:19;;;;;;;0.63;0.63;;;10.30;99.90;9.60;99343;;;;565963;248;24140;-84
2022/10/02 04:36:54;;;;;;;0.40;0.40;;;10.30;99.90;9.60;99342;;;;560052;254;24089;-84
2022/10/02 04:39:31;;;;;;;0.60;0.43;;;10.30;99.90;9.60;99352;;;;557264;254;24137;-85
2022/10/02 04:42:14;;;;;;;2.83;0.97;;;10.30;99.90;9.60;99354;;;;564591;249;24132;-84
2022/10/02 04:45:03;;;;;;;0.47;0.47;;;10.30;99.90;9.60;99358;;;;556739;254;26324;-84
2022/10/02 04:47:51;;;;;;;1.70;0.90;;;10.20;99.90;9.60;99356;;;;556936;254;24152;-84
2022/10/02 04:50:34;;;;;;;1.63;0.57;;;10.30;99.90;9.60;99355;;;;565207;248;24149;-84
2022/10/02 04:53:26;;;;;;;0.60;0.60;;;10.20;99.90;9.60;99354;;;;557083;254;24193;-84
2022/10/02 04:56:03;;;;;;;4.63;0.87;;;10.20;99.90;9.50;99362;;;;569629;251;24122;-83
2022/10/02 04:58:49;;;;;;;1.13;0.90;;;10.20;99.90;9.50;99362;;;;565211;251;24188;-83
2022/10/02 05:01:44;;;;;;;0.73;0.70;;;10.20;99.90;9.50;99359;;;;566733;252;24153;-84
2022/10/02 05:04:35;;;;;;;0.90;0.90;;;10.20;99.90;9.50;99366;;;;563886;238;24149;-83
2022/10/02 05:07:11;;;;;;;0.70;0.70;;;10.20;99.90;9.50;99370;;;;550246;254;26384;-82
2022/10/02 05:09:45;;;;;;;1.07;0.50;;;10.20;99.90;9.50;99367;;;;556275;242;24139;-82
2022/10/02 05:12:19;;;;;;;0.80;0.80;;;10.20;99.90;9.50;99366;;;;566397;243;24113;-84
2022/10/02 05:14:58;;;;;;;2.23;0.70;;;10.20;99.90;9.60;99376;;;;563592;250;24138;-84
2022/10/02 05:17:53;;;;;;;2.23;0.93;;;10.20;99.90;9.60;99382;;;;574094;249;24155;-84
2022/10/02 05:20:58;;;;;;;0.83;0.70;;;10.30;99.90;9.70;99376;;;;558654;248;24150;-82
2022/10/02 05:23:45;;;;;;;0.83;0.70;;;10.30;99.90;9.70;99378;;;;568219;243;24206;-77
2022/10/02 05:26:19;;;;;;;0.93;0.87;;;10.40;99.90;9.80;99379;;;;582069;243;24052;-82
2022/10/02 05:29:09;;;;;;;4.03;0.87;;;10.50;99.90;9.90;99384;;;;580614;242;24040;-79
2022/10/02 05:31:45;;;;;;;0.90;0.70;;;10.50;99.90;10.00;99379;;;;580690;243;24091;-80
2022/10/02 05:34:44;;;;;;;4.00;0.83;;;10.60;99.90;10.00;99376;;;;589764;243;24039;-84
2022/10/02 05:37:33;;;;;;;4.83;0.60;;;10.70;99.90;10.10;99390;;;;589727;243;24029;-81
2022/10/02 05:40:13;;;;;;;3.00;1.00;;;10.70;99.90;10.10;99384;;;;580865;243;24024;-79
2022/10/02 05:42:47;;;;;;;2.73;0.53;;;10.80;99.90;10.20;99386;;;;580651;243;24058;-78
2022/10/02 05:45:35;;;;;;;0.70;0.70;;;10.90;99.90;10.30;99383;;;;579978;242;24047;-76
2022/10/02 05:48:06;;;;;;;0.70;0.70;;;10.90;99.90;10.40;99391;;;;580757;243;24085;-83
2022/10/02 05:50:34;;;;;;;2.73;0.60;;;11.00;99.90;10.40;99398;;;;578256;243;24027;-79
2022/10/02 05:53:05;;;;;;;0.70;0.70;;;11.10;99.90;10.50;99390;;;;590471;243;24024;-78
2022/10/02 05:55:48;;;;;;;5.70;0.83;;;11.20;99.90;10.60;99399;;;;581520;243;24085;-81
2022/10/02 05:58:46;;;;;;;0.60;0.60;;;11.20;99.90;10.70;99407;;;;580515;243;24030;-85
2022/10/02 06:01:23;;;;;;;2.43;1.40;;;11.30;99.90;10.90;99414;;;;595318;241;24050;-84
2022/10/02 06:04:03;;;;;;;0.70;0.70;;;12.00;99.90;11.40;99411;;;;573551;243;24044;-84
2022/10/02 06:06:47;;;;;;;1.60;0.60;;;12.30;99.90;11.70;99411;;;;580013;243;24043;-79
2022/10/02 06:09:18;;;;;;;3.73;0.97;;;12.80;99.90;12.20;99410;;;;580367;243;24082;-75
2022/10/02 06:12:04;;;;;;;2.00;1.07;;;12.80;99.90;13.10;99411;;;;580021;243;24061;-85
2022/10/02 06:14:45;;;;;;;0.60;0.60;;;14.20;99.90;13.80;99412;;;;588487;243;24026;-83
2022/10/02 06:17:19;;;;;;;2.37;0.90;;;14.20;99.90;15.30;99418;;;;580572;243;24093;-80
2022/10/02 06:20:05;;;;;;;2.60;1.10;;;15.50;99.90;16.70;99420;;;;588987;243;24022;-82
2022/10/02 06:22:35;;;;;;;0.80;0.67;;;16.90;99.90;17.50;99413;;;;580341;243;24035;-84
2022/10/02 06:25:25;;;;;;;2.23;0.97;;;17.80;99.90;18.30;99416;;;;589407;243;24035;-82
2022/10/02 06:28:11;;;;;;;3.13;0.90;;;18.50;99.90;19.30;99417;;;;579775;245;24102;-83
2022/10/02 06:30:38;;;;;;;3.23;1.17;;;19.50;99.90;20.00;99414;;;;579968;243;24004;-77
2022/10/02 06:33:25;;;;;;;1.40;1.00;;;20.30;99.90;19.40;99412;;;;571178;240;25089;-79
2022/10/02 06:36:23;;;;;;;1.03;0.60;;;20.00;99.90;19.70;99407;;;;581563;243;24053;-75
2022/10/02 06:39:12;;;;;;;1.50;1.07;;;20.20;99.90;19.70;99412;;;;590375;240;24026;-75
2022/10/02 06:41:46;;;;;;;4.43;1.50;;;20.20;99.90;20.60;99408;;;;576194;243;34731;-76
2022/10/02 06:44:23;;;;;;;3.87;1.70;;;20.70;99.90;22.40;99420;;;;578576;243;24026;-76
2022/10/02 06:47:03;;;;;;;1.87;1.27;;;22.10;99.90;24.10;99425;;;;567831;248;24049;-76
2022/10/02 06:49:31;;;;;;;6.10;1.40;;;23.90;99.90;24.40;99430;;;;580761;243;24001;-77
2022/10/02 06:52:07;;;;;;;2.67;1.20;;;24.60;98.10;23.00;99425;;;;589249;243;24023;-77
2022/10/02 06:54:59;;;;;;;2.37;1.53;;;23.90;96.50;22.00;99426;;;;578711;243;25123;-75
2022/10/02 06:58:04;;;;;;;3.10;1.33;;;22.60;98.90;22.00;99429;;;;580133;243;24075;-77
2022/10/02 07:00:35;;;;;;;4.07;1.60;;;22.50;98.90;22.50;99436;;;;580617;243;24018;-77
2022/10/02 07:03:30;;;;;;;2.73;1.70;;;22.70;99.10;23.30;99435;;;;588698;243;24014;-82
2022/10/02 07:06:22;;;;;;;4.10;2.00;;;23.40;98.30;25.10;99447;;;;580753;243;24028;-82
2022/10/02 07:09:16;;;;;;;6.50;4.53;;;24.80;95.00;26.10;99441;;;;580265;243;24067;-81
2022/10/02 07:12:03;;;;;;;3.50;2.10;;;26.10;91.90;27.10;99440;;;;579905;243;23031;-77
2022/10/02 07:14:36;;;;;;;3.70;1.70;;;27.20;86.70;27.40;99466;;;;580268;243;23040;-76
2022/10/02 07:17:27;;;;;;;4.40;1.47;;;27.60;81.50;27.30;99468;;;;580226;243;23036;-81
2022/10/02 07:19:55;;;;;;;3.63;1.57;;;27.80;78.20;25.70;99482;;;;579863;243;23101;-80
2022/10/02 07:22:38;;;;;;;2.77;1.17;;;26.80;78.90;24.40;99476;;;;580282;243;23105;-77
2022/10/02 07:25:43;;;;;;;3.40;1.80;;;25.80;80.40;24.40;99470;;;;580332;243;24057;-82
2022/10/02 07:28:44;;;;;;;3.53;1.00;;;25.20;83.00;24.70;99477;;;;580303;243;23039;-80
2022/10/02 07:31:48;;;;;;;3.33;1.40;;;25.10;83.80;26.30;99471;;;;580273;243;23100;-79
2022/10/02 07:34:40;;;;;;;4.20;1.53;;;26.20;81.30;27.50;99471;;;;589231;243;23015;-83
2022/10/02 07:37:08;;;;;;;2.83;1.40;;;27.50;76.50;28.00;99478;;;;580485;243;24056;-74
2022/10/02 07:40:16;;;;;;;4.40;1.53;;;28.10;74.20;28.70;99478;;;;581485;243;23034;-76
2022/10/02 07:43:12;;;;;;;3.87;1.77;;;28.80;71.60;29.30;99485;;;;581876;243;23041;-77
2022/10/02 07:45:41;;;;;;;4.47;1.40;;;30.40;66.20;30.30;99483;;;;589893;243;24073;-77
2022/10/02 07:48:20;;;;;;;4.07;1.73;;;30.30;65.20;30.80;99494;;;;590129;243;23029;-75
2022/10/02 07:54:04;;;;;;;2.33;1.20;;;31.30;60.80;32.00;99506;;;;590393;242;24029;-75
2022/10/02 07:56:32;;;;;;;2.35;1.42;;;32.30;58.20;30.80;99511;;;;582832;243;23021;-76
2022/10/02 07:59:00;;;;;;;2.72;1.40;;;31.70;57.10;29.00;99516;;;;589792;243;23026;-83
2022/10/02 08:01:28;;;;;;;1.87;1.27;;;30.30;58.70;27.80;99511;;;;589282;243;23046;-83
2022/10/02 08:03:55;;;;;;;3.30;1.30;;;29.10;61.00;27.00;99500;;;;589344;243;24059;-84
2022/10/02 08:06:23;;;;;;;2.30;1.30;;;28.00;63.00;26.70;99498;;;;589650;243;23032;-75
2022/10/02 08:09:00;;;;;;;3.30;1.50;;;27.50;63.80;26.20;99515;;;;580856;243;24033;-82
2022/10/02 08:11:31;;;;;;;3.33;1.67;;;27.00;65.50;26.00;99514;;;;583911;243;23017;-81
2022/10/02 08:14:02;;;;;;;4.97;1.83;;;26.50;67.80;26.80;99533;;;;580914;243;23052;-80
2022/10/02 08:16:36;;;;;;;4.63;1.53;;;27.40;66.20;27.20;99526;;;;589737;243;23043;-81
2022/10/02 08:19:07;;;;;;;4.10;1.53;;;27.30;66.00;28.00;99533;;;;589502;243;23022;-79
2022/10/02 08:21:35;;;;;;;2.23;1.20;;;28.60;63.60;28.30;99522;;;;589440;243;24036;-75
2022/10/02 08:24:25;;;;;;;3.77;1.50;;;29.20;62.40;28.80;99531;;;;589237;243;23023;-76
2022/10/02 08:26:59;;;;;;;2.00;1.20;;;29.10;62.20;28.60;99538;;;;589613;241;23025;-78
2022/10/02 08:29:41;;;;;;;3.60;1.67;;;29.20;60.90;28.50;99531;;;;589315;241;23022;-77
2022/10/02 08:32:16;;;;;;;3.30;1.30;;;29.10;61.40;28.90;99523;;;;580351;243;23047;-76
2022/10/02 08:34:40;;;;;;;3.07;1.30;;;29.40;60.70;29.30;99541;;;;588885;243;23019;-75
2022/10/02 08:37:35;;;;;;;2.15;1.42;;;29.70;60.50;29.50;99541;;;;580219;243;23088;-76
2022/10/02 08:41:01;;;;;;;3.10;1.92;;;30.00;59.20;29.80;99547;;;;580281;243;23031;-76
2022/10/02 08:44:14;;;;;;;4.32;1.50;;;30.40;57.80;29.70;99549;;;;589624;243;23048;-76
2022/10/02 08:47:09;;;;;;;2.22;1.35;;;30.40;57.80;28.90;99555;;;;589292;243;23048;-77
2022/10/02 08:50:07;;;;;;;3.37;1.50;;;29.90;58.00;27.60;99548;;;;576567;243;23013;-75
2022/10/02 08:53:12;;;;;;;2.87;1.03;;;28.80;59.30;27.10;99560;;;;581771;243;23099;-75
2022/10/02 08:55:57;;;;;;;3.67;1.40;;;28.00;61.00;26.80;99554;;;;578030;243;23018;-76
2022/10/02 08:59:06;;;;;;;2.33;1.33;;;27.60;61.40;25.50;99562;;;;581630;243;24058;-81
2022/10/02 09:02:29;;;;;;;2.23;1.00;;;26.70;63.00;24.80;99544;;;;590350;242;23029;-76
2022/10/02 09:05:25;;;;;;;4.03;1.93;;;25.80;65.50;25.60;99523;;;;590306;243;23039;-79
2022/10/02 09:08:32;;;;;;;2.43;1.30;;;25.90;67.10;26.80;99527;;;;580904;243;23026;-76
2022/10/02 09:11:08;;;;;;;2.50;1.37;;;28.00;61.90;27.80;99543;;;;580996;243;23034;-77
2022/10/02 09:14:09;;;;;;;2.87;1.27;;;28.00;61.90;28.20;99544;;;;580956;243;23022;-77
2022/10/02 09:17:05;;;;;;;2.23;1.47;;;28.70;59.30;27.70;99536;;;;590032;243;23026;-75
2022/10/02 09:20:00;;;;;;;1.50;1.03;;;28.50;58.60;26.30;99528;;;;589548;242;23074;-77
2022/10/02 09:22:54;;;;;;;1.47;1.00;;;26.10;63.50;24.70;99526;;;;588351;243;25181;-76
2022/10/02 09:25:55;;;;;;;4.13;1.90;;;26.10;63.50;24.00;99527;;;;579646;243;23119;-82
2022/10/02 09:29:12;;;;;;;4.33;1.20;;;25.20;66.00;23.30;99519;;;;580434;243;23032;-81
2022/10/02 09:32:05;;;;;;;4.93;1.20;;;24.40;68.00;22.90;99531;;;;581059;243;24043;-80
2022/10/02 09:35:13;;;;;;;2.93;1.20;;;23.90;68.80;22.50;99535;;;;580365;243;24088;-78
2022/10/02 09:38:10;;;;;;;1.53;1.00;;;23.50;70.70;23.10;99520;;;;580291;243;24071;-79
2022/10/02 09:41:10;;;;;;;1.10;1.00;;;23.60;73.00;23.50;99518;;;;588392;243;24026;-76
2022/10/02 09:44:27;;;;;;;3.80;0.97;;;24.10;69.60;22.80;99528;;;;580830;243;24006;-76
2022/10/02 09:47:22;;;;;;;1.90;1.23;;;23.70;69.70;22.00;99533;;;;580755;243;23999;-79
2022/10/02 09:50:28;;;;;;;0.83;0.83;;;22.00;77.10;21.00;99532;;;;589740;243;24027;-81
2022/10/02 09:53:32;;;;;;;1.60;1.00;;;22.00;77.10;20.10;99543;;;;580727;243;24004;-75
2022/10/02 09:56:02;;;;;;;2.67;1.17;;;21.10;79.00;19.10;99544;;;;588793;243;23074;-75
2022/10/02 09:59:03;;;;;;;3.40;1.00;;;20.00;82.40;18.60;99542;;;;580592;243;24011;-75
2022/10/02 10:01:46;;;;;;;1.20;0.90;;;19.40;84.10;18.40;99549;;;;580539;243;24069;-76
2022/10/02 10:04:42;;;;;;;2.27;0.60;;;19.10;86.80;19.00;99544;;;;581388;243;24122;-76
2022/10/02 10:07:37;;;;;;;1.93;1.17;;;19.40;87.90;19.70;99543;;;;590370;243;24024;-75
2022/10/02 10:10:24;;;;;;;2.80;0.80;;;20.40;81.90;19.70;99549;;;;590416;242;23975;-76
2022/10/02 10:13:35;;;;;;;1.30;0.77;;;20.40;81.90;19.60;99560;;;;581006;243;24020;-75
2022/10/02 10:16:29;;;;;;;1.47;1.00;;;20.30;81.90;19.30;99560;;;;579983;243;24071;-77
2022/10/02 10:19:22;;;;;;;0.90;0.90;;;20.00;81.40;18.80;99555;;;;580654;243;24116;-80
2022/10/02 10:22:30;;;;;;;1.50;0.80;;;19.60;82.30;18.20;99547;;;;580358;243;24053;-76
2022/10/02 10:25:37;;;;;;;1.13;0.60;;;19.00;83.10;17.70;99550;;;;580779;243;24021;-82
2022/10/02 10:28:48;;;;;;;0.97;0.90;;;18.50;85.10;17.50;99547;;;;580804;243;24047;-81
2022/10/02 10:31:29;;;;;;;1.53;0.70;;;18.10;87.40;17.30;99546;;;;589922;243;24016;-81
2022/10/02 10:34:27;;;;;;;1.33;0.50;;;17.90;87.50;17.10;99544;;;;580352;243;24065;-79
2022/10/02 10:40:14;;;;;;;0.70;0.70;;;17.40;89.30;16.90;99527;;;;590016;242;24058;-78
2022/10/02 10:42:49;;;;;;;1.00;0.70;;;17.40;89.60;16.90;99527;;;;580676;243;25097;-79
2022/10/02 10:46:11;;;;;;;1.70;0.90;;;17.40;90.10;16.90;99535;;;;580732;243;24014;-82
2022/10/02 10:49:08;;;;;;;0.93;0.60;;;17.40;90.30;16.90;99532;;;;581356;243;24072;-77
2022/10/02 10:51:46;;;;;;;1.77;0.63;;;17.50;90.40;16.80;99533;;;;589829;243;24034;-76
2022/10/02 10:54:43;;;;;;;1.10;1.00;;;17.30;90.80;16.70;99532;;;;580213;243;24027;-76
2022/10/02 10:57:11;;;;;;;3.17;1.00;;;17.30;90.80;16.60;99546;;;;580664;243;24007;-75
2022/10/02 11:00:12;;;;;;;0.40;0.40;;;17.20;91.10;16.30;99540;;;;588984;243;24002;-74
2022/10/02 11:03:29;;;;;;;0.70;0.50;;;16.90;91.70;15.80;99549;;;;580030;243;24030;-82
2022/10/02 11:06:37;;;;;;;0.50;0.50;;;16.50;93.00;15.30;99552;;;;580562;243;24032;-77
2022/10/02 11:09:25;;;;;;;0.80;0.80;;;16.00;95.50;14.90;99552;;;;567901;249;24141;-74
2022/10/02 11:12:02;;;;;;;0.60;0.60;;;15.50;97.60;14.60;99550;;;;571811;250;24097;-75
2022/10/02 11:14:51;;;;;;;1.33;0.90;;;15.20;99.50;14.30;99545;;;;568374;247;24059;-75
2022/10/02 11:17:28;;;;;;;0.50;0.50;;;14.90;99.90;14.20;99549;;;;590834;242;24011;-74
2022/10/02 11:20:17;;;;;;;1.97;0.60;;;14.80;99.90;14.10;99555;;;;578665;243;24021;-77
2022/10/02 11:22:53;;;;;;;1.17;0.63;;;14.60;99.90;13.90;99553;;;;580899;243;24048;-76
2022/10/02 11:25:43;;;;;;;1.17;0.50;;;14.50;99.90;13.70;99556;;;;577485;240;24189;-76
2022/10/02 11:28:22;;;;;;;0.80;0.70;;;14.30;99.90;13.40;99553;;;;577102;243;24063;-77
2022/10/02 11:31:17;;;;;;;1.17;0.80;;;14.00;99.90;13.20;99556;;;;577851;243;24048;-77
2022/10/02 11:34:12;;;;;;;2.20;0.80;;;13.80;99.90;13.00;99556;;;;580890;243;24028;-77
2022/10/02 11:37:13;;;;;;;0.83;0.80;;;13.70;99.90;12.80;99551;;;;578964;241;24063;-75
2022/10/02 11:39:56;;;;;;;0.60;0.60;;;13.40;99.90;12.60;99535;;;;580888;243;24037;-77
2022/10/02 11:43:14;;;;;;;0.57;0.53;;;13.10;99.90;12.50;99540;;;;581993;240;24068;-77
2022/10/02 11:45:58;;;;;;;1.37;0.83;;;13.10;99.90;12.40;99546;;;;580955;243;24025;-78
2022/10/02 11:48:46;;;;;;;1.10;0.67;;;13.00;99.90;12.40;99546;;;;568290;236;24090;-80
2022/10/02 11:51:36;;;;;;;1.27;0.70;;;13.00;99.90;12.30;99551;;;;579809;243;24061;-82
2022/10/02 11:54:43;;;;;;;0.70;0.60;;;12.90;99.90;12.20;99544;;;;589355;241;24065;-81
2022/10/02 11:57:14;;;;;;;1.87;1.30;;;12.80;99.90;12.20;99543;;;;580813;243;24059;-83
2022/10/02 12:00:15;;;;;;;1.70;1.10;;;12.80;99.90;12.30;99543;;;;589434;240;24054;-83
2022/10/02 12:03:04;;;;;;;1.77;0.67;;;12.90;99.90;12.40;99552;;;;580207;243;24009;-77
2022/10/02 12:05:54;;;;;;;1.23;1.00;;;13.00;99.90;12.50;99564;;;;568112;247;24135;-77
2022/10/02 12:08:45;;;;;;;0.77;0.77;;;13.10;99.90;12.50;99564;;;;578753;243;24051;-79
2022/10/02 12:11:32;;;;;;;7.23;2.27;;;13.10;99.90;12.60;99567;;;;580690;243;24030;-84
2022/10/02 12:14:21;;;;;;;3.90;1.27;;;13.10;99.90;12.60;99575;;;;578109;243;24018;-81
2022/10/02 12:17:25;;;;;;;10.57;2.27;;;13.20;99.90;12.80;99564;;;;571656;243;24030;-80
2022/10/02 12:29:24;;;;;;;1.27;0.90;;;14.10;99.90;13.90;99578;;;;590782;242;24058;-81
2022/10/02 12:31:49;;;;;;;1.03;0.90;;;14.40;99.90;14.10;99560;;;;586256;243;24000;-81
2022/10/02 12:34:26;;;;;;;2.30;1.07;;;14.60;99.90;14.30;99563;;;;590144;243;24082;-82
2022/10/02 12:37:08;;;;;;;1.53;1.43;;;14.80;99.90;14.60;99552;;;;580951;243;24009;-78
2022/10/02 12:39:50;;;;;;;2.30;1.20;;;15.20;99.90;14.70;99554;;;;588391;243;24042;-81
2022/10/02 12:42:51;;;;;;;4.73;1.67;;;15.30;99.90;14.70;99544;;;;589277;243;24029;-79
2022/10/02 12:45:22;;;;;;;1.73;1.33;;;15.30;99.90;14.70;99552;;;;580921;243;24024;-78